sensor_id;sensor_type;location;lat;lon;timestamp;temperature;humidity
67901;DHT22;54700;51.796;10.956;2023-09-30T00:01:15;13.70;95.90
67901;DHT22;54700;51.796;10.956;2023-09-30T00:03:44;13.60;95.80
67901;DHT22;54700;51.796;10.956;2023-09-30T00:06:14;13.60;95.90
67901;DHT22;54700;51.796;10.956;2023-09-30T00:08:41;13.50;95.80
67901;DHT22;54700;51.796;10.956;2023-09-30T00:11:10;13.50;95.80
67901;DHT22;54700;51.796;10.956;2023-09-30T00:13:38;13.50;95.70
67901;DHT22;54700;51.796;10.956;2023-09-30T00:16:05;13.50;95.60
67901;DHT22;54700;51.796;10.956;2023-09-30T00:18:32;13.40;95.50
67901;DHT22;54700;51.796;10.956;2023-09-30T00:20:59;13.40;95.60
67901;DHT22;54700;51.796;10.956;2023-09-30T00:23:26;13.40;95.50
67901;DHT22;54700;51.796;10.956;2023-09-30T00:25:54;13.40;95.50
67901;DHT22;54700;51.796;10.956;2023-09-30T00:28:22;13.30;95.50
67901;DHT22;54700;51.796;10.956;2023-09-30T00:30:50;13.40;95.40
67901;DHT22;54700;51.796;10.956;2023-09-30T00:33:17;13.40;95.50
67901;DHT22;54700;51.796;10.956;2023-09-30T00:35:44;13.30;95.20
67901;DHT22;54700;51.796;10.956;2023-09-30T00:38:11;13.30;95.10
67901;DHT22;54700;51.796;10.956;2023-09-30T00:40:39;13.30;95.10
67901;DHT22;54700;51.796;10.956;2023-09-30T00:43:17;13.30;95.00
67901;DHT22;54700;51.796;10.956;2023-09-30T00:45:47;13.30;95.00
67901;DHT22;54700;51.796;10.956;2023-09-30T00:48:17;13.20;95.00
67901;DHT22;54700;51.796;10.956;2023-09-30T00:50:44;13.20;95.00
67901;DHT22;54700;51.796;10.956;2023-09-30T00:53:11;13.20;94.80
67901;DHT22;54700;51.796;10.956;2023-09-30T00:55:38;13.20;94.70
67901;DHT22;54700;51.796;10.956;2023-09-30T00:58:06;13.20;94.70
67901;DHT22;54700;51.796;10.956;2023-09-30T01:00:34;13.20;94.70
67901;DHT22;54700;51.796;10.956;2023-09-30T01:03:03;13.20;94.80
67901;DHT22;54700;51.796;10.956;2023-09-30T01:05:31;13.10;94.80
67901;DHT22;54700;51.796;10.956;2023-09-30T01:08:00;13.10;94.60
67901;DHT22;54700;51.796;10.956;2023-09-30T01:10:28;13.10;94.40
67901;DHT22;54700;51.796;10.956;2023-09-30T01:12:55;13.10;94.50
67901;DHT22;54700;51.796;10.956;2023-09-30T01:15:22;13.10;94.30
67901;DHT22;54700;51.796;10.956;2023-09-30T01:17:49;13.10;94.30
67901;DHT22;54700;51.796;10.956;2023-09-30T01:20:17;13.00;94.20
67901;DHT22;54700;51.796;10.956;2023-09-30T01:22:49;13.00;94.20
67901;DHT22;54700;51.796;10.956;2023-09-30T01:25:15;13.00;94.10
67901;DHT22;54700;51.796;10.956;2023-09-30T01:27:42;13.00;94.00
67901;DHT22;54700;51.796;10.956;2023-09-30T01:30:10;13.00;93.90
67901;DHT22;54700;51.796;10.956;2023-09-30T01:32:39;13.00;93.60
67901;DHT22;54700;51.796;10.956;2023-09-30T01:35:06;13.00;93.60
67901;DHT22;54700;51.796;10.956;2023-09-30T01:37:34;13.00;93.50
67901;DHT22;54700;51.796;10.956;2023-09-30T01:40:03;13.00;93.30
67901;DHT22;54700;51.796;10.956;2023-09-30T01:42:33;12.90;93.30
67901;DHT22;54700;51.796;10.956;2023-09-30T01:45:00;12.90;93.30
67901;DHT22;54700;51.796;10.956;2023-09-30T01:47:27;12.90;93.30
67901;DHT22;54700;51.796;10.956;2023-09-30T01:49:54;12.80;93.30
67901;DHT22;54700;51.796;10.956;2023-09-30T01:52:21;12.80;93.20
67901;DHT22;54700;51.796;10.956;2023-09-30T01:54:48;12.80;93.10
67901;DHT22;54700;51.796;10.956;2023-09-30T01:57:16;12.80;92.90
67901;DHT22;54700;51.796;10.956;2023-09-30T01:59:43;12.80;92.90
67901;DHT22;54700;51.796;10.956;2023-09-30T02:02:10;12.80;92.90
67901;DHT22;54700;51.796;10.956;2023-09-30T02:04:36;12.80;92.80
67901;DHT22;54700;51.796;10.956;2023-09-30T02:07:03;12.80;92.90
67901;DHT22;54700;51.796;10.956;2023-09-30T02:09:30;12.80;93.00
67901;DHT22;54700;51.796;10.956;2023-09-30T02:11:57;12.70;92.90
67901;DHT22;54700;51.796;10.956;2023-09-30T02:14:25;12.70;92.90
67901;DHT22;54700;51.796;10.956;2023-09-30T02:16:52;12.70;93.00
67901;DHT22;54700;51.796;10.956;2023-09-30T02:19:19;12.70;93.00
67901;DHT22;54700;51.796;10.956;2023-09-30T02:21:47;12.70;93.00
67901;DHT22;54700;51.796;10.956;2023-09-30T02:24:14;12.70;92.90
67901;DHT22;54700;51.796;10.956;2023-09-30T02:26:41;12.70;93.00
67901;DHT22;54700;51.796;10.956;2023-09-30T02:29:08;12.70;93.10
67901;DHT22;54700;51.796;10.956;2023-09-30T02:31:37;12.70;93.20
67901;DHT22;54700;51.796;10.956;2023-09-30T02:34:04;12.60;93.10
67901;DHT22;54700;51.796;10.956;2023-09-30T02:36:31;12.70;93.20
67901;DHT22;54700;51.796;10.956;2023-09-30T02:38:57;12.70;93.20
67901;DHT22;54700;51.796;10.956;2023-09-30T02:41:26;12.60;93.20
67901;DHT22;54700;51.796;10.956;2023-09-30T02:43:54;12.60;93.20
67901;DHT22;54700;51.796;10.956;2023-09-30T02:46:24;12.70;93.20
67901;DHT22;54700;51.796;10.956;2023-09-30T02:48:54;12.70;93.30
67901;DHT22;54700;51.796;10.956;2023-09-30T02:51:21;12.60;93.20
67901;DHT22;54700;51.796;10.956;2023-09-30T02:53:48;12.60;93.10
67901;DHT22;54700;51.796;10.956;2023-09-30T02:56:15;12.70;93.20
67901;DHT22;54700;51.796;10.956;2023-09-30T02:58:45;12.70;93.20
67901;DHT22;54700;51.796;10.956;2023-09-30T03:01:13;12.70;93.10
67901;DHT22;54700;51.796;10.956;2023-09-30T03:03:42;12.70;93.20
67901;DHT22;54700;51.796;10.956;2023-09-30T03:06:13;12.60;93.00
67901;DHT22;54700;51.796;10.956;2023-09-30T03:08:40;12.70;93.20
67901;DHT22;54700;51.796;10.956;2023-09-30T03:11:08;12.70;93.20
67901;DHT22;54700;51.796;10.956;2023-09-30T03:13:36;12.70;93.20
67901;DHT22;54700;51.796;10.956;2023-09-30T03:16:03;12.70;93.30
67901;DHT22;54700;51.796;10.956;2023-09-30T03:18:30;12.60;93.40
67901;DHT22;54700;51.796;10.956;2023-09-30T03:20:58;12.60;93.50
67901;DHT22;54700;51.796;10.956;2023-09-30T03:23:28;12.70;93.50
67901;DHT22;54700;51.796;10.956;2023-09-30T03:25:56;12.60;93.60
67901;DHT22;54700;51.796;10.956;2023-09-30T03:28:24;12.60;93.60
67901;DHT22;54700;51.796;10.956;2023-09-30T03:30:51;12.70;93.70
67901;DHT22;54700;51.796;10.956;2023-09-30T03:33:18;12.60;93.70
67901;DHT22;54700;51.796;10.956;2023-09-30T03:35:45;12.60;93.80
67901;DHT22;54700;51.796;10.956;2023-09-30T03:38:12;12.50;93.80
67901;DHT22;54700;51.796;10.956;2023-09-30T03:40:41;12.60;93.80
67901;DHT22;54700;51.796;10.956;2023-09-30T03:43:13;12.60;93.70
67901;DHT22;54700;51.796;10.956;2023-09-30T03:45:40;12.60;93.70
67901;DHT22;54700;51.796;10.956;2023-09-30T03:48:08;12.60;93.70
67901;DHT22;54700;51.796;10.956;2023-09-30T03:50:35;12.60;93.60
67901;DHT22;54700;51.796;10.956;2023-09-30T03:53:03;12.60;93.50
67901;DHT22;54700;51.796;10.956;2023-09-30T03:55:32;12.60;93.50
67901;DHT22;54700;51.796;10.956;2023-09-30T03:58:01;12.50;93.40
67901;DHT22;54700;51.796;10.956;2023-09-30T04:00:29;12.60;93.40
67901;DHT22;54700;51.796;10.956;2023-09-30T04:02:56;12.50;93.40
67901;DHT22;54700;51.796;10.956;2023-09-30T04:05:24;12.50;93.30
67901;DHT22;54700;51.796;10.956;2023-09-30T04:07:55;12.60;93.40
67901;DHT22;54700;51.796;10.956;2023-09-30T04:10:22;12.50;93.30
67901;DHT22;54700;51.796;10.956;2023-09-30T04:12:49;12.60;93.30
67901;DHT22;54700;51.796;10.956;2023-09-30T04:15:18;12.60;93.30
67901;DHT22;54700;51.796;10.956;2023-09-30T04:17:45;12.60;93.40
67901;DHT22;54700;51.796;10.956;2023-09-30T04:20:13;12.60;93.30
67901;DHT22;54700;51.796;10.956;2023-09-30T04:22:48;12.60;93.30
67901;DHT22;54700;51.796;10.956;2023-09-30T04:25:16;12.70;93.30
67901;DHT22;54700;51.796;10.956;2023-09-30T04:27:44;12.60;93.20
67901;DHT22;54700;51.796;10.956;2023-09-30T04:30:13;12.60;93.50
67901;DHT22;54700;51.796;10.956;2023-09-30T04:32:42;12.60;93.20
67901;DHT22;54700;51.796;10.956;2023-09-30T04:35:09;12.60;93.20
67901;DHT22;54700;51.796;10.956;2023-09-30T04:37:36;12.60;93.10
67901;DHT22;54700;51.796;10.956;2023-09-30T04:40:05;12.60;93.20
67901;DHT22;54700;51.796;10.956;2023-09-30T04:42:40;12.60;93.10
67901;DHT22;54700;51.796;10.956;2023-09-30T04:45:10;12.60;93.20
67901;DHT22;54700;51.796;10.956;2023-09-30T04:47:37;12.60;93.20
67901;DHT22;54700;51.796;10.956;2023-09-30T04:50:07;12.50;93.30
67901;DHT22;54700;51.796;10.956;2023-09-30T04:52:35;12.50;93.40
67901;DHT22;54700;51.796;10.956;2023-09-30T04:55:02;12.50;93.40
67901;DHT22;54700;51.796;10.956;2023-09-30T04:57:29;12.50;93.50
67901;DHT22;54700;51.796;10.956;2023-09-30T04:59:57;12.50;93.60
67901;DHT22;54700;51.796;10.956;2023-09-30T05:02:24;12.50;93.80
67901;DHT22;54700;51.796;10.956;2023-09-30T05:04:51;12.40;93.80
67901;DHT22;54700;51.796;10.956;2023-09-30T05:07:20;12.40;94.10
67901;DHT22;54700;51.796;10.956;2023-09-30T05:09:47;12.30;94.20
67901;DHT22;54700;51.796;10.956;2023-09-30T05:12:15;12.30;94.30
67901;DHT22;54700;51.796;10.956;2023-09-30T05:14:42;12.30;94.40
67901;DHT22;54700;51.796;10.956;2023-09-30T05:17:09;12.30;94.40
67901;DHT22;54700;51.796;10.956;2023-09-30T05:19:37;12.30;94.50
67901;DHT22;54700;51.796;10.956;2023-09-30T05:22:04;12.20;94.50
67901;DHT22;54700;51.796;10.956;2023-09-30T05:24:32;12.20;94.50
67901;DHT22;54700;51.796;10.956;2023-09-30T05:27:00;12.20;94.70
67901;DHT22;54700;51.796;10.956;2023-09-30T05:29:28;12.20;94.60
67901;DHT22;54700;51.796;10.956;2023-09-30T05:31:58;12.30;94.90
67901;DHT22;54700;51.796;10.956;2023-09-30T05:34:25;12.30;94.40
67901;DHT22;54700;51.796;10.956;2023-09-30T05:36:53;12.30;94.40
67901;DHT22;54700;51.796;10.956;2023-09-30T05:39:20;12.40;94.20
67901;DHT22;54700;51.796;10.956;2023-09-30T05:41:48;12.40;94.20
67901;DHT22;54700;51.796;10.956;2023-09-30T05:44:16;12.50;94.20
67901;DHT22;54700;51.796;10.956;2023-09-30T05:46:42;12.50;94.10
67901;DHT22;54700;51.796;10.956;2023-09-30T05:49:10;12.40;94.10
67901;DHT22;54700;51.796;10.956;2023-09-30T05:51:39;12.50;93.70
67901;DHT22;54700;51.796;10.956;2023-09-30T05:54:06;12.50;93.60
67901;DHT22;54700;51.796;10.956;2023-09-30T05:56:35;12.50;93.20
67901;DHT22;54700;51.796;10.956;2023-09-30T05:59:05;12.60;93.10
67901;DHT22;54700;51.796;10.956;2023-09-30T06:01:32;12.60;93.10
67901;DHT22;54700;51.796;10.956;2023-09-30T06:03:59;12.60;93.00
67901;DHT22;54700;51.796;10.956;2023-09-30T06:06:26;12.60;92.60
67901;DHT22;54700;51.796;10.956;2023-09-30T06:08:53;12.70;92.10
67901;DHT22;54700;51.796;10.956;2023-09-30T06:11:23;12.70;92.20
67901;DHT22;54700;51.796;10.956;2023-09-30T06:13:53;12.80;92.20
67901;DHT22;54700;51.796;10.956;2023-09-30T06:16:22;12.80;91.70
67901;DHT22;54700;51.796;10.956;2023-09-30T06:18:51;12.90;91.40
67901;DHT22;54700;51.796;10.956;2023-09-30T06:21:18;12.90;90.70
67901;DHT22;54700;51.796;10.956;2023-09-30T06:23:47;13.00;90.80
67901;DHT22;54700;51.796;10.956;2023-09-30T06:26:14;13.10;90.80
67901;DHT22;54700;51.796;10.956;2023-09-30T06:28:42;13.10;90.60
67901;DHT22;54700;51.796;10.956;2023-09-30T06:31:09;13.20;90.60
67901;DHT22;54700;51.796;10.956;2023-09-30T06:33:38;13.30;90.40
67901;DHT22;54700;51.796;10.956;2023-09-30T06:36:08;13.40;90.60
67901;DHT22;54700;51.796;10.956;2023-09-30T06:38:36;13.40;90.30
67901;DHT22;54700;51.796;10.956;2023-09-30T06:41:03;13.50;90.30
67901;DHT22;54700;51.796;10.956;2023-09-30T06:43:30;13.50;90.20
67901;DHT22;54700;51.796;10.956;2023-09-30T06:45:58;13.50;90.30
67901;DHT22;54700;51.796;10.956;2023-09-30T06:48:25;13.50;90.10
67901;DHT22;54700;51.796;10.956;2023-09-30T06:50:55;13.50;90.10
67901;DHT22;54700;51.796;10.956;2023-09-30T06:53:24;13.50;89.40
67901;DHT22;54700;51.796;10.956;2023-09-30T06:55:51;13.50;89.50
67901;DHT22;54700;51.796;10.956;2023-09-30T06:58:18;13.40;89.20
67901;DHT22;54700;51.796;10.956;2023-09-30T07:00:46;13.40;89.20
67901;DHT22;54700;51.796;10.956;2023-09-30T07:03:15;13.30;89.80
67901;DHT22;54700;51.796;10.956;2023-09-30T07:05:42;13.20;90.20
67901;DHT22;54700;51.796;10.956;2023-09-30T07:08:11;13.20;90.40
67901;DHT22;54700;51.796;10.956;2023-09-30T07:10:38;13.20;90.30
67901;DHT22;54700;51.796;10.956;2023-09-30T07:13:05;13.20;90.50
67901;DHT22;54700;51.796;10.956;2023-09-30T07:15:32;13.20;90.40
67901;DHT22;54700;51.796;10.956;2023-09-30T07:17:59;13.20;90.60
67901;DHT22;54700;51.796;10.956;2023-09-30T07:20:28;13.20;90.50
67901;DHT22;54700;51.796;10.956;2023-09-30T07:22:58;13.20;90.60
67901;DHT22;54700;51.796;10.956;2023-09-30T07:25:26;13.20;90.60
67901;DHT22;54700;51.796;10.956;2023-09-30T07:27:53;13.20;90.70
67901;DHT22;54700;51.796;10.956;2023-09-30T07:30:19;13.30;90.70
67901;DHT22;54700;51.796;10.956;2023-09-30T07:32:46;13.30;90.70
67901;DHT22;54700;51.796;10.956;2023-09-30T07:35:13;13.30;90.60
67901;DHT22;54700;51.796;10.956;2023-09-30T07:37:41;13.40;90.70
67901;DHT22;54700;51.796;10.956;2023-09-30T07:40:08;13.40;90.60
67901;DHT22;54700;51.796;10.956;2023-09-30T07:42:37;13.50;90.10
67901;DHT22;54700;51.796;10.956;2023-09-30T07:45:07;13.60;90.00
67901;DHT22;54700;51.796;10.956;2023-09-30T07:47:35;13.70;89.40
67901;DHT22;54700;51.796;10.956;2023-09-30T07:50:03;13.80;89.70
67901;DHT22;54700;51.796;10.956;2023-09-30T07:52:34;13.80;88.10
67901;DHT22;54700;51.796;10.956;2023-09-30T07:55:01;13.90;87.90
67901;DHT22;54700;51.796;10.956;2023-09-30T07:57:30;13.90;88.10
67901;DHT22;54700;51.796;10.956;2023-09-30T07:59:59;14.00;87.50
67901;DHT22;54700;51.796;10.956;2023-09-30T08:02:27;14.10;87.30
67901;DHT22;54700;51.796;10.956;2023-09-30T08:04:58;14.10;87.60
67901;DHT22;54700;51.796;10.956;2023-09-30T08:07:26;14.10;87.90
67901;DHT22;54700;51.796;10.956;2023-09-30T08:09:53;14.20;87.50
67901;DHT22;54700;51.796;10.956;2023-09-30T08:12:20;14.30;87.80
67901;DHT22;54700;51.796;10.956;2023-09-30T08:14:47;14.30;87.60
67901;DHT22;54700;51.796;10.956;2023-09-30T08:17:15;14.30;86.60
67901;DHT22;54700;51.796;10.956;2023-09-30T08:19:44;14.40;86.10
67901;DHT22;54700;51.796;10.956;2023-09-30T08:22:12;14.40;86.60
67901;DHT22;54700;51.796;10.956;2023-09-30T08:24:38;14.50;86.00
67901;DHT22;54700;51.796;10.956;2023-09-30T08:27:05;14.50;85.30
67901;DHT22;54700;51.796;10.956;2023-09-30T08:29:33;14.60;83.80
67901;DHT22;54700;51.796;10.956;2023-09-30T08:32:01;14.60;83.20
67901;DHT22;54700;51.796;10.956;2023-09-30T08:34:30;14.70;84.50
67901;DHT22;54700;51.796;10.956;2023-09-30T08:36:58;14.80;82.90
67901;DHT22;54700;51.796;10.956;2023-09-30T08:39:26;14.80;81.30
67901;DHT22;54700;51.796;10.956;2023-09-30T08:41:54;14.90;80.50
67901;DHT22;54700;51.796;10.956;2023-09-30T08:44:21;14.90;80.70
67901;DHT22;54700;51.796;10.956;2023-09-30T08:46:48;15.00;80.90
67901;DHT22;54700;51.796;10.956;2023-09-30T08:49:17;15.00;81.00
67901;DHT22;54700;51.796;10.956;2023-09-30T08:51:47;15.00;80.10
67901;DHT22;54700;51.796;10.956;2023-09-30T08:54:16;15.00;79.80
67901;DHT22;54700;51.796;10.956;2023-09-30T08:56:43;15.10;78.90
67901;DHT22;54700;51.796;10.956;2023-09-30T08:59:13;15.20;79.30
67901;DHT22;54700;51.796;10.956;2023-09-30T09:01:41;15.20;78.50
67901;DHT22;54700;51.796;10.956;2023-09-30T09:04:08;15.20;78.40
67901;DHT22;54700;51.796;10.956;2023-09-30T09:06:36;15.20;78.90
67901;DHT22;54700;51.796;10.956;2023-09-30T09:09:16;15.30;77.40
67901;DHT22;54700;51.796;10.956;2023-09-30T09:11:44;15.40;77.70
67901;DHT22;54700;51.796;10.956;2023-09-30T09:14:13;15.40;78.20
67901;DHT22;54700;51.796;10.956;2023-09-30T09:16:50;15.50;77.20
67901;DHT22;54700;51.796;10.956;2023-09-30T09:19:19;15.50;77.40
67901;DHT22;54700;51.796;10.956;2023-09-30T09:21:54;15.60;76.70
67901;DHT22;54700;51.796;10.956;2023-09-30T09:24:34;15.60;74.20
67901;DHT22;54700;51.796;10.956;2023-09-30T09:27:05;15.60;75.30
67901;DHT22;54700;51.796;10.956;2023-09-30T09:29:42;15.70;73.70
67901;DHT22;54700;51.796;10.956;2023-09-30T09:32:11;15.70;73.00
67901;DHT22;54700;51.796;10.956;2023-09-30T09:34:41;15.70;73.10
67901;DHT22;54700;51.796;10.956;2023-09-30T09:37:12;15.70;71.60
67901;DHT22;54700;51.796;10.956;2023-09-30T09:39:42;15.80;72.50
67901;DHT22;54700;51.796;10.956;2023-09-30T09:42:23;15.80;72.60
67901;DHT22;54700;51.796;10.956;2023-09-30T09:44:52;15.80;70.70
67901;DHT22;54700;51.796;10.956;2023-09-30T09:47:22;15.90;71.60
67901;DHT22;54700;51.796;10.956;2023-09-30T09:49:50;15.90;71.20
67901;DHT22;54700;51.796;10.956;2023-09-30T09:52:18;15.90;71.80
67901;DHT22;54700;51.796;10.956;2023-09-30T09:54:50;15.90;72.00
67901;DHT22;54700;51.796;10.956;2023-09-30T09:57:17;15.80;71.60
67901;DHT22;54700;51.796;10.956;2023-09-30T09:59:45;15.80;72.50
67901;DHT22;54700;51.796;10.956;2023-09-30T10:02:14;15.90;72.20
67901;DHT22;54700;51.796;10.956;2023-09-30T10:04:43;16.00;72.60
67901;DHT22;54700;51.796;10.956;2023-09-30T10:07:12;16.00;72.50
67901;DHT22;54700;51.796;10.956;2023-09-30T10:09:45;16.10;70.50
67901;DHT22;54700;51.796;10.956;2023-09-30T10:12:17;16.10;70.00
67901;DHT22;54700;51.796;10.956;2023-09-30T10:14:46;16.10;71.20
67901;DHT22;54700;51.796;10.956;2023-09-30T10:17:13;16.10;71.40
67901;DHT22;54700;51.796;10.956;2023-09-30T10:22:32;16.10;71.30
67901;DHT22;54700;51.796;10.956;2023-09-30T10:25:00;16.10;70.20
67901;DHT22;54700;51.796;10.956;2023-09-30T10:27:47;16.00;67.90
67901;DHT22;54700;51.796;10.956;2023-09-30T10:30:14;16.00;68.50
67901;DHT22;54700;51.796;10.956;2023-09-30T10:35:42;16.00;68.50
67901;DHT22;54700;51.796;10.956;2023-09-30T10:41:10;16.00;68.40
67901;DHT22;54700;51.796;10.956;2023-09-30T10:53:18;16.30;69.40
67901;DHT22;54700;51.796;10.956;2023-09-30T10:56:02;16.40;69.20
67901;DHT22;54700;51.796;10.956;2023-09-30T10:58:40;16.40;68.30
67901;DHT22;54700;51.796;10.956;2023-09-30T11:01:13;16.40;68.20
67901;DHT22;54700;51.796;10.956;2023-09-30T11:03:45;16.50;68.30
67901;DHT22;54700;51.796;10.956;2023-09-30T11:06:19;16.50;68.20
67901;DHT22;54700;51.796;10.956;2023-09-30T11:09:09;16.50;68.10
67901;DHT22;54700;51.796;10.956;2023-09-30T11:11:45;16.60;67.80
67901;DHT22;54700;51.796;10.956;2023-09-30T11:17:05;16.70;65.50
67901;DHT22;54700;51.796;10.956;2023-09-30T11:19:34;16.70;65.50
67901;DHT22;54700;51.796;10.956;2023-09-30T11:22:03;16.70;66.20
67901;DHT22;54700;51.796;10.956;2023-09-30T11:24:35;16.70;64.80
67901;DHT22;54700;51.796;10.956;2023-09-30T11:27:05;16.60;65.80
67901;DHT22;54700;51.796;10.956;2023-09-30T11:29:35;16.60;66.60
67901;DHT22;54700;51.796;10.956;2023-09-30T11:32:03;16.70;67.50
67901;DHT22;54700;51.796;10.956;2023-09-30T11:34:33;16.70;68.10
67901;DHT22;54700;51.796;10.956;2023-09-30T11:37:03;16.80;68.90
67901;DHT22;54700;51.796;10.956;2023-09-30T11:39:38;16.90;68.50
67901;DHT22;54700;51.796;10.956;2023-09-30T11:42:14;17.00;68.30
67901;DHT22;54700;51.796;10.956;2023-09-30T11:44:47;17.10;66.70
67901;DHT22;54700;51.796;10.956;2023-09-30T11:47:27;17.10;66.40
67901;DHT22;54700;51.796;10.956;2023-09-30T11:49:59;17.10;66.80
67901;DHT22;54700;51.796;10.956;2023-09-30T11:52:26;17.10;67.60
67901;DHT22;54700;51.796;10.956;2023-09-30T11:54:54;17.00;67.40
67901;DHT22;54700;51.796;10.956;2023-09-30T11:57:22;17.10;66.10
67901;DHT22;54700;51.796;10.956;2023-09-30T11:59:51;17.10;64.00
67901;DHT22;54700;51.796;10.956;2023-09-30T12:02:19;17.10;64.80
67901;DHT22;54700;51.796;10.956;2023-09-30T12:04:47;17.20;63.10
67901;DHT22;54700;51.796;10.956;2023-09-30T12:07:15;17.20;62.40
67901;DHT22;54700;51.796;10.956;2023-09-30T12:09:44;17.20;63.00
67901;DHT22;54700;51.796;10.956;2023-09-30T12:12:11;17.10;61.50
67901;DHT22;54700;51.796;10.956;2023-09-30T12:14:48;17.20;62.20
67901;DHT22;54700;51.796;10.956;2023-09-30T12:17:21;17.20;62.40
67901;DHT22;54700;51.796;10.956;2023-09-30T12:19:55;17.10;62.10
67901;DHT22;54700;51.796;10.956;2023-09-30T12:22:23;17.10;62.60
67901;DHT22;54700;51.796;10.956;2023-09-30T12:24:51;17.10;63.50
67901;DHT22;54700;51.796;10.956;2023-09-30T12:27:29;17.10;63.60
67901;DHT22;54700;51.796;10.956;2023-09-30T12:30:03;17.10;58.50
67901;DHT22;54700;51.796;10.956;2023-09-30T12:32:35;17.20;57.60
67901;DHT22;54700;51.796;10.956;2023-09-30T12:35:05;17.30;58.20
67901;DHT22;54700;51.796;10.956;2023-09-30T12:37:35;17.30;59.10
67901;DHT22;54700;51.796;10.956;2023-09-30T12:40:16;17.30;58.90
67901;DHT22;54700;51.796;10.956;2023-09-30T12:42:45;17.30;59.60
67901;DHT22;54700;51.796;10.956;2023-09-30T12:45:14;17.30;60.60
67901;DHT22;54700;51.796;10.956;2023-09-30T12:47:42;17.40;59.20
67901;DHT22;54700;51.796;10.956;2023-09-30T12:50:13;17.40;58.20
67901;DHT22;54700;51.796;10.956;2023-09-30T12:52:44;17.50;59.20
67901;DHT22;54700;51.796;10.956;2023-09-30T12:55:13;17.50;58.80
67901;DHT22;54700;51.796;10.956;2023-09-30T12:57:42;17.50;57.50
67901;DHT22;54700;51.796;10.956;2023-09-30T13:00:10;17.50;58.40
67901;DHT22;54700;51.796;10.956;2023-09-30T13:02:38;17.50;58.20
67901;DHT22;54700;51.796;10.956;2023-09-30T13:05:05;17.40;54.10
67901;DHT22;54700;51.796;10.956;2023-09-30T13:07:32;17.40;53.10
67901;DHT22;54700;51.796;10.956;2023-09-30T13:10:03;17.30;52.40
67901;DHT22;54700;51.796;10.956;2023-09-30T13:12:50;17.40;54.10
67901;DHT22;54700;51.796;10.956;2023-09-30T13:23:35;17.50;53.70
67901;DHT22;54700;51.796;10.956;2023-09-30T13:26:02;17.50;54.60
67901;DHT22;54700;51.796;10.956;2023-09-30T13:28:29;17.60;54.40
67901;DHT22;54700;51.796;10.956;2023-09-30T13:30:56;17.50;54.70
67901;DHT22;54700;51.796;10.956;2023-09-30T13:33:23;17.50;55.90
67901;DHT22;54700;51.796;10.956;2023-09-30T13:35:50;17.60;56.40
67901;DHT22;54700;51.796;10.956;2023-09-30T13:38:16;17.60;56.70
67901;DHT22;54700;51.796;10.956;2023-09-30T13:40:53;17.60;57.60
67901;DHT22;54700;51.796;10.956;2023-09-30T13:43:31;17.50;57.70
67901;DHT22;54700;51.796;10.956;2023-09-30T13:46:03;17.60;58.30
67901;DHT22;54700;51.796;10.956;2023-09-30T13:48:37;17.60;57.00
67901;DHT22;54700;51.796;10.956;2023-09-30T13:51:05;17.60;57.60
67901;DHT22;54700;51.796;10.956;2023-09-30T13:53:47;17.60;53.60
67901;DHT22;54700;51.796;10.956;2023-09-30T13:56:18;17.60;54.50
67901;DHT22;54700;51.796;10.956;2023-09-30T13:58:46;17.50;52.80
67901;DHT22;54700;51.796;10.956;2023-09-30T14:01:15;17.60;53.00
67901;DHT22;54700;51.796;10.956;2023-09-30T14:03:51;17.50;53.00
67901;DHT22;54700;51.796;10.956;2023-09-30T14:06:34;17.50;54.20
67901;DHT22;54700;51.796;10.956;2023-09-30T14:09:29;17.50;53.80
67901;DHT22;54700;51.796;10.956;2023-09-30T14:11:57;17.60;53.60
67901;DHT22;54700;51.796;10.956;2023-09-30T14:14:24;17.60;53.00
67901;DHT22;54700;51.796;10.956;2023-09-30T14:16:51;17.60;54.30
67901;DHT22;54700;51.796;10.956;2023-09-30T14:19:18;17.60;54.70
67901;DHT22;54700;51.796;10.956;2023-09-30T14:21:45;17.60;55.50
67901;DHT22;54700;51.796;10.956;2023-09-30T14:24:14;17.60;55.10
67901;DHT22;54700;51.796;10.956;2023-09-30T14:26:41;17.60;55.60
67901;DHT22;54700;51.796;10.956;2023-09-30T15:02:51;17.30;62.20
67901;DHT22;54700;51.796;10.956;2023-09-30T15:05:25;17.20;62.30
67901;DHT22;54700;51.796;10.956;2023-09-30T15:13:13;17.00;63.60
67901;DHT22;54700;51.796;10.956;2023-09-30T15:15:41;17.00;63.60
67901;DHT22;54700;51.796;10.956;2023-09-30T15:18:11;17.00;63.40
67901;DHT22;54700;51.796;10.956;2023-09-30T15:20:38;17.10;62.50
67901;DHT22;54700;51.796;10.956;2023-09-30T15:23:05;17.00;62.40
67901;DHT22;54700;51.796;10.956;2023-09-30T15:25:32;17.00;62.60
67901;DHT22;54700;51.796;10.956;2023-09-30T15:28:05;17.10;62.50
67901;DHT22;54700;51.796;10.956;2023-09-30T15:30:34;17.10;63.10
67901;DHT22;54700;51.796;10.956;2023-09-30T15:33:01;17.10;63.30
67901;DHT22;54700;51.796;10.956;2023-09-30T15:35:30;17.10;63.60
67901;DHT22;54700;51.796;10.956;2023-09-30T15:37:57;17.10;64.00
67901;DHT22;54700;51.796;10.956;2023-09-30T15:40:24;17.20;63.90
67901;DHT22;54700;51.796;10.956;2023-09-30T15:42:52;17.20;63.90
67901;DHT22;54700;51.796;10.956;2023-09-30T15:45:18;17.10;63.50
67901;DHT22;54700;51.796;10.956;2023-09-30T15:47:45;17.10;63.40
67901;DHT22;54700;51.796;10.956;2023-09-30T15:50:17;17.00;63.40
67901;DHT22;54700;51.796;10.956;2023-09-30T15:52:45;16.90;64.00
67901;DHT22;54700;51.796;10.956;2023-09-30T15:55:15;16.80;64.60
67901;DHT22;54700;51.796;10.956;2023-09-30T15:57:42;16.70;64.90
67901;DHT22;54700;51.796;10.956;2023-09-30T16:00:10;16.70;66.20
67901;DHT22;54700;51.796;10.956;2023-09-30T16:02:38;16.60;67.40
67901;DHT22;54700;51.796;10.956;2023-09-30T16:05:21;16.60;67.60
67901;DHT22;54700;51.796;10.956;2023-09-30T16:08:09;16.50;67.70
67901;DHT22;54700;51.796;10.956;2023-09-30T16:10:36;16.50;67.70
67901;DHT22;54700;51.796;10.956;2023-09-30T16:13:04;16.40;68.80
67901;DHT22;54700;51.796;10.956;2023-09-30T16:15:33;16.40;68.60
67901;DHT22;54700;51.796;10.956;2023-09-30T16:18:01;16.30;69.60
67901;DHT22;54700;51.796;10.956;2023-09-30T16:20:30;16.20;70.20
67901;DHT22;54700;51.796;10.956;2023-09-30T16:22:58;16.10;70.90
67901;DHT22;54700;51.796;10.956;2023-09-30T16:25:27;16.00;71.40
67901;DHT22;54700;51.796;10.956;2023-09-30T16:27:55;15.90;72.20
67901;DHT22;54700;51.796;10.956;2023-09-30T16:30:25;15.80;73.80
67901;DHT22;54700;51.796;10.956;2023-09-30T16:32:53;15.70;75.40
67901;DHT22;54700;51.796;10.956;2023-09-30T16:37:56;15.50;76.90